This is the latest recevied weather packets stored in our database for station/object KD9IXX-13. If no packets are shown the sender has not sent any weather packets the latest 10 day(s).
| Time | Temp. | Humidity | Pressure | Rain* | Wind** | Luminosity | Snow |
|---|---|---|---|---|---|---|---|
| 1787837702 | 21.67° C | 86% | 1017.6 hPa | 0 mm | - | 312 W/m² | - |
| 1787836802 | 21.11° C | 88% | 1017.6 hPa | 0 mm | - | 258 W/m² | - |
| 1787835902 | 20° C | 90% | 1017.4 hPa | 0 mm | - | 209 W/m² | - |
| 1787835602 | 20° C | 91% | 1017.2 hPa | 0 mm | - | 178 W/m² | - |
| 1787833802 | 18.33° C | 97% | 1017.1 hPa | 0 mm | - | 45 W/m² | - |
| 1787833501 | 18.33° C | 98% | 1017.1 hPa | 0 mm | - | 37 W/m² | - |
| 1787833202 | 17.78° C | 99% | 1017 hPa | 0 mm | - | 32 W/m² | - |
| 1787832902 | 17.78° C | 99% | 1017 hPa | 0 mm | - | 32 W/m² | - |
| 1787832302 | 17.78° C | 99% | 1017 hPa | 0 mm | - | 27 W/m² | - |
| 1787831702 | 17.22° C | 99% | 1016.8 hPa | 0 mm | - | 23 W/m² | - |
| 1787831402 | 17.22° C | 99% | 1016.7 hPa | 0 mm | - | 20 W/m² | - |
| 1787830502 | 16.67° C | 99% | 1016.5 hPa | 0 mm | - | 12 W/m² | - |
| 1787829602 | 16.67° C | 99% | 1016.5 hPa | 0 mm | - | 4 W/m² | - |
| 1787829302 | 16.67° C | 99% | 1016.3 hPa | 0 mm | - | 3 W/m² | - |
| 1787829002 | 17.22° C | 99% | 1016.4 hPa | 0 mm | - | 0 W/m² | - |
| 1787827201 | 17.22° C | 99% | 1016.3 hPa | 0 mm | - | 0 W/m² | - |
| 1787826902 | 17.22° C | 99% | 1016.3 hPa | 0 mm | - | 0 W/m² | - |
| 1787826601 | 17.78° C | 99% | 1015.9 hPa | 0 mm | - | 0 W/m² | - |
| 1787826002 | 17.78° C | 99% | 1015.8 hPa | 0 mm | - | 0 W/m² | - |
| 1787825702 | 17.78° C | 99% | 1015.9 hPa | 0 mm | - | 0 W/m² | - |
| 1787821802 | 17.78° C | 97% | 1015.8 hPa | 0 mm | - | 0 W/m² | - |
| 1787820302 | 18.89° C | 96% | 1015.5 hPa | 0 mm | - | 0 W/m² | - |
| 1787819702 | 18.89° C | 96% | 1015.5 hPa | 0 mm | - | 0 W/m² | - |
| 1787818802 | 18.89° C | 96% | 1015.6 hPa | 0 mm | - | 0 W/m² | - |
| 1787817902 | 18.33° C | 97% | 1015.6 hPa | 0 mm | - | 0 W/m² | - |
* Rain latest hour (hover to see other rain measurements)
** Current wind speed in m/s (hover to see current wind gust speed)